Time;durP1;ratioP1;P1;durP2;ratioP2;P2;SDS_P1;SDS_P2;PMS_P1;PMS_P2;Temp;Humidity;BMP_temperature;BMP_pressure;BME280_temperature;BME280_humidity;BME280_pressure;Samples;Min_cycle;Max_cycle;Signal;HPM_P1;HPM_P2
2022/05/01 00:02:13;;;;;;;8.93;4.47;;;7.30;94.00;7.20;101071.00;;;;4954714;28;88826;-70
2022/05/01 00:04:39;;;;;;;8.50;5.47;;;7.30;94.40;7.20;101067.00;;;;4954417;28;117600;-70
2022/05/01 00:07:04;;;;;;;5.70;5.20;;;7.30;94.70;7.10;101069.00;;;;4953291;28;88016;-70
2022/05/01 00:09:30;;;;;;;10.40;5.97;;;7.40;95.00;7.10;101059.00;;;;4955155;28;96862;-70
2022/05/01 00:11:57;;;;;;;11.07;5.97;;;7.20;95.40;7.00;101059.00;;;;4954638;28;87724;-70
2022/05/01 00:14:22;;;;;;;10.17;6.87;;;7.20;95.90;7.00;101052.00;;;;4953954;28;118836;-70
2022/05/01 00:16:49;;;;;;;9.00;5.57;;;7.10;96.00;6.90;101054.00;;;;4953974;28;118529;-70
2022/05/01 00:19:15;;;;;;;11.00;5.67;;;7.10;96.40;6.90;101054.00;;;;4955559;28;86932;-71
2022/05/01 00:21:41;;;;;;;8.37;6.70;;;7.00;96.70;6.80;101059.00;;;;4969391;28;88056;-70
2022/05/01 00:24:08;;;;;;;8.97;5.93;;;7.00;96.90;6.80;101041.00;;;;4953707;28;117714;-70
2022/05/01 00:26:34;;;;;;;16.30;7.03;;;6.90;97.20;6.70;101052.00;;;;4953032;28;88744;-70
2022/05/01 00:29:05;;;;;;;9.60;5.90;;;6.90;97.50;6.70;101053.00;;;;4952736;28;87639;-70
2022/05/01 00:31:31;;;;;;;11.53;6.73;;;6.90;97.70;6.70;101061.00;;;;4954128;28;87818;-70
2022/05/01 00:36:40;;;;;;;11.50;6.53;;;6.80;98.20;6.60;101062.00;;;;4952078;28;88097;-70
2022/05/01 00:39:07;;;;;;;7.77;6.30;;;6.80;98.50;6.50;101059.00;;;;4953819;28;110273;-70
2022/05/01 00:41:39;;;;;;;8.17;6.30;;;6.70;98.90;6.50;101057.00;;;;4960773;28;98789;-70
2022/05/01 00:44:09;;;;;;;7.83;6.33;;;6.70;99.10;6.40;101060.00;;;;4954734;28;87257;-70
2022/05/01 00:46:45;;;;;;;6.93;5.63;;;6.50;99.50;6.30;101067.00;;;;4955308;28;87513;-70
2022/05/01 00:49:16;;;;;;;7.13;5.47;;;6.50;99.80;6.30;101058.00;;;;4954660;28;87729;-71
2022/05/01 00:51:53;;;;;;;7.63;6.10;;;6.50;99.90;6.30;101055.00;;;;4952890;28;89010;-70
2022/05/01 00:54:24;;;;;;;7.77;6.80;;;6.50;99.90;6.30;101059.00;;;;4952743;28;88897;-71
2022/05/01 00:56:52;;;;;;;8.87;5.93;;;6.50;99.90;6.30;101061.00;;;;4954966;28;88239;-70
2022/05/01 00:59:19;;;;;;;9.30;6.23;;;6.70;99.90;6.20;101059.00;;;;4954877;28;87835;-70
2022/05/01 01:01:47;;;;;;;8.93;5.90;;;6.30;99.90;6.20;101056.00;;;;4954118;28;108960;-70
2022/05/01 01:04:13;;;;;;;7.90;6.10;;;6.40;99.90;6.20;101052.00;;;;4955019;28;88132;-70
2022/05/01 01:06:41;;;;;;;6.80;6.03;;;6.30;99.90;6.10;101049.00;;;;4952574;28;116577;-71
2022/05/01 01:09:08;;;;;;;8.40;6.80;;;6.30;99.90;6.10;101050.00;;;;4952453;28;87018;-70
2022/05/01 01:11:36;;;;;;;11.43;7.73;;;6.50;99.90;6.10;101060.00;;;;4955577;28;87750;-70
2022/05/01 01:14:05;;;;;;;8.50;7.37;;;6.60;99.90;6.00;101067.00;;;;4953759;28;89248;-71
2022/05/01 01:16:44;;;;;;;9.03;6.87;;;6.20;99.90;6.00;101065.00;;;;4954297;28;88726;-70
2022/05/01 01:19:10;;;;;;;12.90;9.27;;;6.20;99.90;5.90;101060.00;;;;4955182;28;87641;-70
2022/05/01 01:21:36;;;;;;;11.63;7.97;;;6.10;99.90;5.90;101067.00;;;;4958314;28;87707;-70
2022/05/01 01:24:06;;;;;;;11.33;8.90;;;6.10;99.90;5.80;101065.00;;;;4957102;28;88595;-70
2022/05/01 01:26:34;;;;;;;11.40;8.83;;;6.00;99.90;5.80;101067.00;;;;4956200;28;87808;-70
2022/05/01 01:29:00;;;;;;;9.57;8.00;;;6.10;99.90;5.80;101056.00;;;;4957603;28;87974;-70
2022/05/01 01:31:42;;;;;;;9.97;8.07;;;6.00;99.90;5.80;101065.00;;;;4956669;28;87637;-70
2022/05/01 01:34:13;;;;;;;9.70;8.00;;;6.30;99.90;5.70;101071.00;;;;4957338;28;87136;-70
2022/05/01 01:36:41;;;;;;;11.20;7.47;;;6.20;99.90;5.70;101061.00;;;;4957536;28;88235;-70
2022/05/01 01:39:06;;;;;;;9.23;7.60;;;5.90;99.90;5.70;101067.00;;;;4956965;28;88002;-70
2022/05/01 01:41:35;;;;;;;9.60;8.00;;;5.90;99.90;5.70;101070.00;;;;4956335;28;108753;-70
2022/05/01 01:44:01;;;;;;;8.60;6.90;;;5.90;99.90;5.60;101062.00;;;;4956962;28;87760;-70
2022/05/01 01:46:27;;;;;;;9.43;7.57;;;5.80;99.90;5.60;101066.00;;;;4957397;28;105620;-70
2022/05/01 01:48:53;;;;;;;13.93;9.43;;;5.80;99.90;5.60;101061.00;;;;4955690;28;106836;-71
2022/05/01 01:51:19;;;;;;;17.77;9.60;;;5.80;99.90;5.60;101063.00;;;;4956095;28;87742;-71
2022/05/01 01:53:45;;;;;;;11.70;9.03;;;5.80;99.90;5.70;101064.00;;;;4954338;28;108101;-70
2022/05/01 01:56:12;;;;;;;10.83;8.93;;;5.80;99.90;5.60;101069.00;;;;4957264;28;88564;-70
2022/05/01 01:58:40;;;;;;;12.33;8.67;;;6.10;99.90;5.60;101066.00;;;;4956323;28;105787;-70
2022/05/01 02:01:12;;;;;;;10.90;7.47;;;5.80;99.90;5.50;101067.00;;;;4956899;28;100509;-70
2022/05/01 02:03:38;;;;;;;10.07;8.23;;;5.70;99.90;5.50;101074.00;;;;4955065;28;89662;-71
2022/05/01 02:06:04;;;;;;;10.00;7.30;;;5.70;99.90;5.40;101064.00;;;;4955142;28;88829;-70
2022/05/01 02:08:31;;;;;;;11.23;8.50;;;5.60;99.90;5.30;101053.00;;;;4956714;28;88074;-70
2022/05/01 02:10:57;;;;;;;12.33;8.23;;;5.60;99.90;5.30;101060.00;;;;4957531;28;87914;-70
2022/05/01 02:13:23;;;;;;;10.67;7.93;;;5.80;99.90;5.20;101056.00;;;;4953755;28;108532;-70
2022/05/01 02:15:49;;;;;;;9.87;8.53;;;5.50;99.90;5.20;101057.00;;;;4956256;28;117323;-70
2022/05/01 02:18:15;;;;;;;8.73;6.53;;;5.40;99.90;5.10;101056.00;;;;4954094;28;110355;-70
2022/05/01 02:23:25;;;;;;;10.53;8.20;;;5.30;99.90;5.00;101046.00;;;;4956576;28;87295;-70
2022/05/01 02:25:51;;;;;;;9.37;7.13;;;5.20;99.90;5.00;101058.00;;;;4956751;28;88593;-70
2022/05/01 02:28:18;;;;;;;8.20;7.10;;;5.20;99.90;4.90;101047.00;;;;4954598;28;87981;-70
2022/05/01 02:30:44;;;;;;;7.90;7.07;;;5.10;99.90;4.90;101035.00;;;;4957015;28;89093;-70
2022/05/01 02:33:11;;;;;;;12.13;8.23;;;5.10;99.90;4.80;101051.00;;;;4955468;28;117642;-70
2022/05/01 02:35:38;;;;;;;9.83;8.47;;;5.10;99.90;4.80;101060.00;;;;4954923;28;88119;-70
2022/05/01 02:38:04;;;;;;;9.93;7.27;;;5.00;99.90;4.80;101051.00;;;;4956865;28;87775;-70
2022/05/01 02:40:32;;;;;;;9.77;7.70;;;5.00;99.90;4.80;101047.00;;;;4955051;28;87868;-70
2022/05/01 02:42:59;;;;;;;10.37;7.20;;;4.90;99.90;4.80;101047.00;;;;4956610;28;92021;-70
2022/05/01 02:45:26;;;;;;;7.13;6.37;;;4.50;99.90;4.70;101040.00;;;;4956555;28;88938;-70
2022/05/01 02:47:52;;;;;;;10.07;7.17;;;4.90;99.90;4.70;101044.00;;;;4956430;28;87030;-70
2022/05/01 02:50:18;;;;;;;12.10;7.10;;;4.90;99.90;4.70;101040.00;;;;4956916;28;87923;-70
2022/05/01 02:52:43;;;;;;;12.27;7.37;;;5.30;99.90;4.70;101047.00;;;;4955349;28;110054;-70
2022/05/01 02:55:09;;;;;;;8.93;7.67;;;4.90;99.90;4.70;101044.00;;;;4955180;28;108141;-70
2022/05/01 02:57:35;;;;;;;11.93;7.97;;;4.90;99.90;4.70;101044.00;;;;4953955;28;110763;-69
2022/05/01 03:00:16;;;;;;;11.43;7.67;;;4.90;99.90;4.60;101045.00;;;;4954777;28;108238;-69
2022/05/01 03:02:46;;;;;;;12.50;8.77;;;4.80;99.90;4.60;101043.00;;;;4956111;28;87647;-70
2022/05/01 03:05:16;;;;;;;13.23;8.13;;;4.80;99.90;4.60;101039.00;;;;4956356;28;87937;-70
2022/05/01 03:07:42;;;;;;;9.10;8.20;;;4.80;99.90;4.40;101046.00;;;;4955757;28;95879;-70
2022/05/01 03:10:10;;;;;;;13.67;8.53;;;4.70;99.90;4.30;101040.00;;;;4954083;28;87929;-70
2022/05/01 03:12:40;;;;;;;14.43;8.07;;;4.60;99.90;4.30;101032.00;;;;4954487;28;87987;-70
2022/05/01 03:15:08;;;;;;;8.70;7.90;;;4.50;99.90;4.20;101037.00;;;;4956057;28;90076;-71
2022/05/01 03:23:03;;;;;;;10.50;7.53;;;4.30;99.90;4.10;101039.00;;;;4955096;28;87933;-70
2022/05/01 03:25:29;;;;;;;8.40;7.63;;;4.30;99.90;4.10;101040.00;;;;4955305;28;103085;-70
2022/05/01 03:27:55;;;;;;;15.43;7.63;;;4.30;99.90;4.00;101041.00;;;;4955605;28;109434;-71
2022/05/01 03:30:22;;;;;;;10.37;8.50;;;4.60;99.90;4.10;101045.00;;;;4964884;28;88016;-70
2022/05/01 03:32:49;;;;;;;8.80;7.20;;;4.70;99.90;4.00;101057.00;;;;4956003;28;88657;-69
2022/05/01 03:35:17;;;;;;;12.73;9.10;;;4.20;99.90;4.00;101053.00;;;;4955684;28;89213;-70
2022/05/01 03:38:06;;;;;;;12.17;8.00;;;4.20;99.90;3.80;101053.00;;;;4956002;28;87238;-70
2022/05/01 03:40:35;;;;;;;10.87;8.53;;;4.10;99.90;3.80;101047.00;;;;4954975;28;108868;-70
2022/05/01 03:43:03;;;;;;;14.93;9.17;;;4.00;99.90;3.70;101045.00;;;;4955670;28;88102;-70
2022/05/01 03:45:29;;;;;;;12.73;8.97;;;3.90;99.90;3.60;101053.00;;;;4955204;28;88788;-69
2022/05/01 03:47:54;;;;;;;13.70;8.73;;;3.90;99.90;3.60;101047.00;;;;4956292;28;87869;-69
2022/05/01 03:50:20;;;;;;;10.67;8.57;;;3.80;99.90;3.60;101044.00;;;;4954609;28;108929;-69
2022/05/01 03:52:47;;;;;;;11.77;8.30;;;3.80;99.90;3.60;101047.00;;;;4955376;28;88137;-69
2022/05/01 03:55:12;;;;;;;10.73;8.43;;;3.80;99.90;3.60;101044.00;;;;4955875;28;88745;-70
2022/05/01 03:57:39;;;;;;;12.00;8.40;;;3.80;99.90;3.60;101041.00;;;;4955554;28;91512;-70
2022/05/01 04:00:10;;;;;;;10.10;8.33;;;3.80;99.90;3.60;101042.00;;;;4955546;28;87718;-70
2022/05/01 04:02:43;;;;;;;15.60;9.20;;;3.80;99.90;3.60;101035.00;;;;4956283;28;88339;-70
2022/05/01 04:05:10;;;;;;;14.53;8.97;;;3.80;99.90;3.70;101058.00;;;;4955697;28;87928;-71
2022/05/01 04:07:36;;;;;;;11.03;9.50;;;3.90;99.90;3.70;101058.00;;;;4953937;28;87812;-70
2022/05/01 04:10:02;;;;;;;10.00;8.20;;;3.90;99.90;3.70;101073.00;;;;4954441;28;94461;-70
2022/05/01 04:12:28;;;;;;;12.13;10.30;;;4.00;99.90;3.80;101057.00;;;;4955215;28;109068;-69
2022/05/01 04:14:53;;;;;;;22.13;11.50;;;4.00;99.90;3.80;101059.00;;;;4954049;28;117473;-70
2022/05/01 04:17:19;;;;;;;9.73;8.70;;;4.00;99.90;3.90;101070.00;;;;4953879;28;112871;-70
2022/05/01 04:19:47;;;;;;;11.10;9.97;;;4.00;99.90;3.90;101069.00;;;;4954718;28;108751;-69
2022/05/01 04:22:12;;;;;;;10.43;9.33;;;4.00;99.90;4.00;101069.00;;;;4955062;28;89320;-69
2022/05/01 04:24:38;;;;;;;14.50;9.23;;;4.10;99.90;4.00;101073.00;;;;4955065;28;116812;-70
2022/05/01 04:27:06;;;;;;;10.03;9.03;;;4.20;99.90;4.00;101071.00;;;;4954835;28;111192;-69
2022/05/01 04:29:38;;;;;;;20.30;10.70;;;4.20;99.90;4.10;101075.00;;;;4955605;28;87742;-70
2022/05/01 04:32:06;;;;;;;20.00;11.47;;;4.30;99.90;4.10;101078.00;;;;4954685;28;89012;-70
2022/05/01 04:34:33;;;;;;;20.13;11.00;;;4.30;99.90;4.20;101075.00;;;;4954060;28;89171;-70
2022/05/01 04:36:59;;;;;;;16.63;11.67;;;4.30;99.90;4.20;101087.00;;;;4954503;28;87843;-70
2022/05/01 04:39:26;;;;;;;19.43;12.20;;;4.40;99.90;4.30;101074.00;;;;4955133;28;87895;-70
2022/05/01 04:41:52;;;;;;;12.03;9.87;;;4.50;99.90;4.40;101070.00;;;;4954749;28;88366;-70
2022/05/01 04:44:18;;;;;;;16.80;11.87;;;4.50;99.90;4.50;101090.00;;;;4955438;28;88549;-70
2022/05/01 04:46:47;;;;;;;13.37;11.03;;;4.60;99.90;4.60;101089.00;;;;4953854;28;108488;-70
2022/05/01 04:49:13;;;;;;;18.20;12.67;;;4.70;99.90;4.60;101082.00;;;;4953524;28;87702;-70
2022/05/01 04:51:38;;;;;;;14.80;12.00;;;4.80;99.90;4.70;101087.00;;;;4952131;28;116975;-70
2022/05/01 04:54:04;;;;;;;21.30;12.43;;;4.90;99.90;4.80;101095.00;;;;4955530;28;117283;-70
2022/05/01 04:59:14;;;;;;;23.47;14.10;;;5.00;99.90;5.10;101093.00;;;;4954981;28;88764;-70
2022/05/01 05:01:41;;;;;;;19.10;13.90;;;5.20;99.90;5.30;101089.00;;;;4954957;28;96314;-71
2022/05/01 05:04:07;;;;;;;20.53;14.40;;;5.40;99.90;5.50;101107.00;;;;4957736;28;87828;-70
2022/05/01 05:06:32;;;;;;;22.10;15.93;;;5.60;99.90;5.70;101119.00;;;;4957193;28;112833;-70
2022/05/01 05:11:42;;;;;;;23.57;16.67;;;5.80;99.90;6.00;101116.00;;;;4952771;28;88094;-71
2022/05/01 05:14:08;;;;;;;25.30;18.03;;;6.00;99.90;6.20;101110.00;;;;4954287;28;118118;-72
2022/05/01 05:16:34;;;;;;;30.53;18.23;;;6.40;99.90;6.40;101104.00;;;;4956473;28;87021;-70
2022/05/01 05:18:59;;;;;;;24.30;17.53;;;6.40;99.90;6.50;101107.00;;;;4955823;28;87825;-70
2022/05/01 05:21:25;;;;;;;21.60;17.50;;;6.60;99.90;6.70;101125.00;;;;4955428;28;115377;-70
2022/05/01 05:23:57;;;;;;;20.20;16.83;;;6.80;99.90;6.90;101125.00;;;;4956091;28;115965;-70
2022/05/01 05:26:23;;;;;;;23.90;16.73;;;6.90;99.90;7.10;101129.00;;;;4957373;28;87830;-69
2022/05/01 05:28:48;;;;;;;23.70;17.87;;;7.20;99.90;7.30;101137.00;;;;4957302;28;107755;-70
2022/05/01 05:31:14;;;;;;;23.57;18.60;;;7.30;99.90;7.50;101132.00;;;;4945330;28;117464;-69
2022/05/01 05:33:40;;;;;;;27.67;19.33;;;7.50;99.90;7.70;101128.00;;;;4936337;28;117022;-71
2022/05/01 05:36:06;;;;;;;30.70;20.10;;;7.70;99.90;7.90;101141.00;;;;4937106;28;112857;-71
2022/05/01 05:38:33;;;;;;;22.60;17.97;;;7.90;99.90;8.10;101143.00;;;;4936873;28;100459;-69
2022/05/01 05:41:00;;;;;;;28.27;18.93;;;8.10;99.90;8.40;101144.00;;;;4959118;28;87161;-70
2022/05/01 05:43:25;;;;;;;20.43;16.50;;;8.30;99.90;8.60;101147.00;;;;4955021;28;110056;-69
2022/05/01 05:45:51;;;;;;;23.27;16.87;;;8.50;99.90;8.90;101153.00;;;;4956203;28;114022;-70
2022/05/01 05:48:17;;;;;;;17.17;13.73;;;8.80;99.90;9.10;101151.00;;;;4944137;28;88807;-69
2022/05/01 05:50:42;;;;;;;16.63;13.47;;;9.10;99.90;9.40;101157.00;;;;4939895;28;118659;-69
2022/05/01 05:53:08;;;;;;;17.57;12.73;;;9.30;99.90;9.60;101162.00;;;;4957097;28;88263;-70
2022/05/01 05:55:34;;;;;;;13.73;11.93;;;9.50;99.90;9.80;101159.00;;;;4950779;28;112426;-68
2022/05/01 05:58:01;;;;;;;16.70;10.33;;;9.70;99.90;10.00;101155.00;;;;4952672;28;107576;-69
2022/05/01 06:00:27;;;;;;;18.73;12.13;;;9.90;99.90;10.20;101158.00;;;;4952639;28;88751;-68
2022/05/01 06:02:52;;;;;;;18.07;10.60;;;10.10;99.90;10.40;101159.00;;;;4952217;28;117839;-68
2022/05/01 06:05:18;;;;;;;14.97;11.40;;;10.40;99.90;10.70;101164.00;;;;4946185;28;99258;-68
2022/05/01 06:07:53;;;;;;;16.87;11.80;;;10.60;99.90;10.80;101164.00;;;;4952873;28;108561;-68
2022/05/01 06:10:19;;;;;;;18.80;12.13;;;10.80;99.90;11.00;101160.00;;;;4948991;28;108814;-68
2022/05/01 06:12:44;;;;;;;20.93;12.03;;;10.90;99.90;11.20;101163.00;;;;4949255;28;102278;-68
2022/05/01 06:15:10;;;;;;;15.10;10.90;;;11.10;99.90;11.30;101160.00;;;;4952368;28;114984;-68
2022/05/01 06:17:37;;;;;;;19.83;11.57;;;11.30;99.90;11.50;101161.00;;;;4952461;28;87619;-68
2022/05/01 06:20:07;;;;;;;11.17;9.77;;;11.40;99.90;11.60;101164.00;;;;4952388;28;90112;-69
2022/05/01 06:22:32;;;;;;;18.00;11.23;;;11.60;99.90;11.80;101164.00;;;;4950975;28;89350;-69
2022/05/01 06:24:59;;;;;;;12.47;8.43;;;11.70;99.90;12.00;101165.00;;;;4952033;28;107645;-68
2022/05/01 06:27:25;;;;;;;10.17;9.10;;;11.90;99.90;12.20;101158.00;;;;4952968;28;109658;-68
2022/05/01 06:29:50;;;;;;;12.83;9.07;;;12.10;99.90;12.40;101161.00;;;;4952417;28;115756;-68
2022/05/01 06:32:17;;;;;;;8.50;7.70;;;12.30;99.90;12.60;101160.00;;;;4952062;28;115582;-69
2022/05/01 06:34:45;;;;;;;10.23;7.90;;;12.50;99.90;12.80;101160.00;;;;4952737;28;87605;-69
2022/05/01 06:37:11;;;;;;;9.33;8.07;;;12.70;99.50;13.10;101167.00;;;;4953077;28;88602;-69
2022/05/01 06:39:36;;;;;;;14.70;9.00;;;12.90;98.70;13.30;101161.00;;;;4951112;28;109662;-69
2022/05/01 06:42:02;;;;;;;14.17;9.20;;;13.20;98.00;13.50;101165.00;;;;4951873;28;117385;-69
2022/05/01 06:44:28;;;;;;;10.60;8.63;;;13.40;97.30;13.80;101164.00;;;;4952806;28;100401;-68
2022/05/01 06:46:54;;;;;;;14.47;9.00;;;13.70;95.80;14.00;101170.00;;;;4952717;28;87804;-69
2022/05/01 06:49:19;;;;;;;12.23;8.97;;;13.90;94.30;14.10;101153.00;;;;4964629;28;116126;-69
2022/05/01 06:51:45;;;;;;;12.30;8.00;;;14.00;92.80;14.20;101164.00;;;;4962232;28;117542;-69
2022/05/01 06:54:16;;;;;;;9.82;7.43;;;14.10;92.50;14.40;101166.00;;;;4953520;28;87118;-69
2022/05/01 06:56:44;;;;;;;12.65;7.88;;;14.30;92.60;14.70;101165.00;;;;4952280;28;108169;-68
2022/05/01 06:59:10;;;;;;;9.75;6.95;;;14.60;92.10;15.00;101162.00;;;;4952784;28;87686;-68
2022/05/01 07:01:36;;;;;;;10.43;7.85;;;14.80;91.40;15.30;101164.00;;;;4948414;28;98666;-68
2022/05/01 07:04:02;;;;;;;10.43;8.38;;;15.10;90.60;15.60;101164.00;;;;4951980;28;110594;-68
2022/05/01 07:06:30;;;;;;;9.18;6.45;;;15.40;90.00;15.90;101168.00;;;;4951743;28;109162;-68
2022/05/01 07:08:56;;;;;;;11.25;7.72;;;15.70;88.00;16.20;101159.00;;;;4951250;28;117443;-68
2022/05/01 07:11:22;;;;;;;11.23;6.88;;;16.00;85.10;16.40;101163.00;;;;4945059;28;98974;-68
2022/05/01 07:13:47;;;;;;;12.68;8.32;;;16.20;82.50;16.50;101164.00;;;;4951796;28;109745;-68
2022/05/01 07:16:13;;;;;;;12.63;7.38;;;16.40;80.00;16.50;101164.00;;;;4965653;28;109477;-68
2022/05/01 07:18:39;;;;;;;9.20;6.82;;;16.50;76.80;16.60;101171.00;;;;4952701;28;88357;-68
2022/05/01 07:21:04;;;;;;;10.18;8.40;;;16.50;75.30;16.80;101161.00;;;;4950439;28;116276;-68
2022/05/01 07:23:36;;;;;;;12.13;8.15;;;16.70;73.30;16.90;101159.00;;;;4951452;28;110616;-68
2022/05/01 07:26:02;;;;;;;10.52;7.60;;;16.80;71.70;17.10;101171.00;;;;4951396;28;109337;-68
2022/05/01 07:28:27;;;;;;;13.95;7.25;;;17.00;71.50;17.40;101165.00;;;;4951354;28;117547;-69
2022/05/01 07:30:53;;;;;;;7.07;6.35;;;17.20;71.00;17.70;101168.00;;;;4951098;28;102494;-68
2022/05/01 07:33:19;;;;;;;10.48;7.82;;;17.50;69.90;18.00;101166.00;;;;4953031;28;87892;-69
2022/05/01 07:35:46;;;;;;;13.73;8.15;;;17.80;69.00;18.30;101161.00;;;;4951531;28;108335;-68
2022/05/01 07:38:11;;;;;;;8.90;7.88;;;18.10;66.40;18.40;101160.00;;;;4951690;28;88566;-68
2022/05/01 07:40:37;;;;;;;17.50;7.28;;;18.00;62.60;18.40;101164.00;;;;4952604;28;88503;-68
2022/05/01 07:43:03;;;;;;;12.68;7.88;;;18.30;62.10;18.40;101160.00;;;;4951788;28;86984;-68
2022/05/01 07:45:29;;;;;;;10.50;8.25;;;18.40;61.90;18.50;101159.00;;;;4967242;28;88246;-68
2022/05/01 07:47:54;;;;;;;7.35;6.55;;;18.40;61.10;18.60;101161.00;;;;4950461;28;116716;-68
2022/05/01 07:50:20;;;;;;;8.20;6.93;;;18.50;60.80;18.70;101158.00;;;;4948284;28;89118;-68
2022/05/01 07:52:46;;;;;;;9.23;7.20;;;18.60;60.30;18.90;101169.00;;;;4951940;28;87660;-69
2022/05/01 07:55:12;;;;;;;9.77;7.43;;;18.80;60.00;19.20;101164.00;;;;4951300;28;108149;-69
2022/05/01 07:57:37;;;;;;;12.45;7.45;;;19.00;59.60;19.50;101164.00;;;;4951020;28;109067;-69
2022/05/01 08:00:04;;;;;;;13.57;7.93;;;19.30;59.20;19.70;101161.00;;;;4952013;28;88707;-69
2022/05/01 08:05:23;;;;;;;10.10;7.15;;;19.70;56.80;19.80;101161.00;;;;4949943;28;87840;-69
2022/05/01 08:07:51;;;;;;;8.48;6.88;;;19.80;56.80;20.00;101163.00;;;;4950414;28;87109;-68
2022/05/01 08:10:17;;;;;;;17.90;7.47;;;19.90;56.50;20.20;101168.00;;;;4942057;28;87811;-69
2022/05/01 08:12:43;;;;;;;11.38;7.30;;;20.10;56.60;20.50;101154.00;;;;4948450;28;110500;-69
2022/05/01 08:15:09;;;;;;;9.32;7.82;;;20.30;56.50;20.70;101168.00;;;;4950795;28;107766;-70
2022/05/01 08:17:35;;;;;;;11.32;8.23;;;20.50;56.10;20.90;101160.00;;;;4952085;28;89338;-71
2022/05/01 08:22:45;;;;;;;13.55;6.95;;;20.90;55.10;21.40;101162.00;;;;4942124;28;87797;-70
2022/05/01 08:25:11;;;;;;;6.28;5.70;;;21.20;54.30;21.50;101160.00;;;;4951175;28;109702;-70
2022/05/01 08:27:39;;;;;;;7.28;5.90;;;21.30;53.80;21.70;101156.00;;;;4953903;28;106676;-70
2022/05/01 08:30:06;;;;;;;9.35;6.15;;;21.50;53.40;21.90;101165.00;;;;4957983;28;88705;-69
2022/05/01 08:32:31;;;;;;;9.20;6.38;;;21.60;52.70;22.00;101165.00;;;;4956967;28;101093;-70
2022/05/01 08:34:57;;;;;;;7.82;5.93;;;21.80;52.20;22.20;101154.00;;;;4958227;28;88039;-69
2022/05/01 08:37:23;;;;;;;7.80;6.15;;;22.00;51.90;22.30;101159.00;;;;4957656;28;118024;-69
2022/05/01 08:39:49;;;;;;;11.32;6.43;;;22.10;51.40;22.30;101152.00;;;;4957758;28;88914;-69
2022/05/01 08:42:14;;;;;;;9.75;6.55;;;22.20;51.00;22.50;101154.00;;;;4957004;28;103950;-70
2022/05/01 08:44:41;;;;;;;8.43;6.30;;;22.30;50.80;22.70;101157.00;;;;4957159;28;109341;-71
2022/05/01 08:47:21;;;;;;;7.15;5.93;;;22.50;50.20;22.80;101153.00;;;;4955031;28;118103;-70
2022/05/01 08:49:55;;;;;;;7.82;5.38;;;22.60;49.30;23.00;101159.00;;;;4957617;28;101717;-70
2022/05/01 08:52:22;;;;;;;9.25;5.65;;;22.80;49.00;23.10;101144.00;;;;4957767;28;88098;-69
2022/05/01 08:54:48;;;;;;;11.52;5.15;;;22.90;48.20;23.30;101153.00;;;;4955771;28;95091;-69
2022/05/01 08:57:18;;;;;;;12.07;5.95;;;23.00;47.30;23.50;101154.00;;;;4955726;28;99042;-73
2022/05/01 08:59:46;;;;;;;6.93;5.43;;;23.20;46.90;23.70;101149.00;;;;4955184;28;109676;-73
2022/05/01 09:02:11;;;;;;;7.95;5.53;;;23.40;46.20;23.90;101154.00;;;;4956721;28;87773;-73
2022/05/01 09:04:37;;;;;;;7.80;4.90;;;23.50;45.30;24.00;101150.00;;;;4955117;28;88919;-75
2022/05/01 09:07:06;;;;;;;8.55;4.55;;;23.70;44.70;24.20;101153.00;;;;4957079;28;88753;-73
2022/05/01 09:09:31;;;;;;;5.60;4.35;;;24.00;43.80;24.30;101149.00;;;;4955857;28;118549;-73
2022/05/01 09:14:42;;;;;;;6.28;4.40;;;24.10;39.40;24.00;101150.00;;;;4954293;28;87773;-72
2022/05/01 09:17:12;;;;;;;8.25;4.28;;;23.80;40.10;23.90;101145.00;;;;4956793;28;88775;-73
2022/05/01 09:19:38;;;;;;;6.60;4.65;;;23.70;40.50;24.00;101142.00;;;;4957841;28;88061;-73
2022/05/01 09:22:04;;;;;;;9.95;5.07;;;23.80;40.80;24.20;101144.00;;;;4946343;28;87466;-73
2022/05/01 09:24:30;;;;;;;9.38;4.30;;;23.90;40.10;24.10;101142.00;;;;4948445;28;88004;-75
2022/05/01 09:26:58;;;;;;;6.40;4.97;;;23.90;39.70;24.10;101138.00;;;;4951523;28;106851;-75
2022/05/01 09:29:31;;;;;;;5.88;4.28;;;23.80;38.30;24.00;101140.00;;;;4952882;28;88701;-73
2022/05/01 09:32:03;;;;;;;6.40;3.80;;;23.70;38.60;23.90;101137.00;;;;4954496;28;87708;-73
2022/05/01 09:34:32;;;;;;;5.63;4.07;;;23.60;39.30;23.90;101139.00;;;;4953515;28;88089;-73
2022/05/01 09:36:59;;;;;;;5.43;3.65;;;23.60;39.30;24.10;101147.00;;;;4952588;28;87753;-75
2022/05/01 09:39:31;;;;;;;6.18;3.38;;;23.70;39.60;24.40;101140.00;;;;4954801;28;88649;-73
2022/05/01 09:42:21;;;;;;;5.55;2.88;;;24.00;39.50;24.70;101146.00;;;;4951735;28;87638;-73
2022/05/01 09:45:07;;;;;;;4.88;3.50;;;24.20;38.60;25.00;101144.00;;;;4968657;28;87945;-76
2022/05/01 09:47:40;;;;;;;5.22;2.35;;;24.50;37.20;25.10;101146.00;;;;4946186;28;87885;-72
2022/05/01 09:50:07;;;;;;;5.70;3.25;;;24.60;36.00;25.20;101138.00;;;;4953787;28;88063;-74
2022/05/01 09:52:53;;;;;;;4.75;3.13;;;24.70;36.30;25.30;101140.00;;;;4949551;28;88791;-73
2022/05/01 09:55:18;;;;;;;12.65;3.40;;;24.80;36.50;25.60;101140.00;;;;4964692;28;101162;-75
2022/05/01 09:57:44;;;;;;;6.32;3.30;;;25.20;36.70;25.80;101137.00;;;;4951267;28;117945;-74
2022/05/01 10:00:42;;;;;;;3.90;2.55;;;25.20;36.40;26.10;101130.00;;;;4951941;28;117877;-75
2022/05/01 10:03:28;;;;;;;4.68;3.35;;;25.50;35.00;26.30;101139.00;;;;4949913;28;88109;-74
2022/05/01 10:05:56;;;;;;;3.80;2.92;;;25.60;35.10;26.50;101138.00;;;;4948359;28;87808;-74
2022/05/01 10:08:22;;;;;;;4.88;3.13;;;25.90;34.30;26.40;101139.00;;;;4952809;28;88345;-72
2022/05/01 10:10:51;;;;;;;6.65;3.03;;;25.90;32.60;25.90;101130.00;;;;4951533;28;89093;-74
2022/05/01 10:13:17;;;;;;;2.80;2.53;;;25.60;32.60;25.70;101129.00;;;;4953360;28;87353;-74
2022/05/01 10:15:43;;;;;;;3.17;2.88;;;25.30;33.90;25.70;101131.00;;;;4949975;28;88712;-74
2022/05/01 10:18:11;;;;;;;3.90;2.78;;;25.30;33.60;25.80;101130.00;;;;4951074;28;87896;-75
2022/05/01 10:20:37;;;;;;;5.15;4.07;;;25.20;34.40;26.10;101133.00;;;;4950763;28;88762;-74
2022/05/01 10:23:03;;;;;;;6.60;3.33;;;25.40;35.20;26.60;101130.00;;;;4951027;28;110587;-75
2022/05/01 10:25:37;;;;;;;3.60;2.72;;;25.70;35.60;27.10;101130.00;;;;4952941;28;87958;-72
2022/05/01 10:28:05;;;;;;;3.95;2.90;;;26.20;34.60;27.40;101136.00;;;;4949681;28;88006;-74
2022/05/01 10:33:36;;;;;;;3.65;2.13;;;26.80;34.30;27.70;101132.00;;;;4965061;28;87572;-72
2022/05/01 10:36:37;;;;;;;3.67;2.58;;;27.00;33.50;27.50;101127.00;;;;4952398;28;89660;-73
2022/05/01 10:39:15;;;;;;;3.80;1.60;;;27.00;30.70;27.50;101119.00;;;;4951304;28;91315;-73
2022/05/01 10:41:43;;;;;;;5.47;2.00;;;26.90;31.60;27.70;101121.00;;;;4951582;28;87886;-73
2022/05/01 10:44:35;;;;;;;1.73;1.45;;;27.00;31.20;27.70;101124.00;;;;4952291;28;87673;-72
2022/05/01 10:47:12;;;;;;;2.75;1.63;;;27.10;30.00;27.80;101131.00;;;;4950827;28;88709;-73
2022/05/01 10:49:47;;;;;;;1.92;1.35;;;27.10;30.40;28.00;101112.00;;;;4966889;28;90986;-75
2022/05/01 10:52:26;;;;;;;2.00;1.33;;;27.30;30.30;28.20;101115.00;;;;4949722;28;90224;-75
2022/05/01 10:55:00;;;;;;;9.98;2.10;;;27.50;30.00;28.20;101107.00;;;;4952744;28;87921;-72
2022/05/01 10:57:26;;;;;;;3.10;2.05;;;27.50;29.10;28.10;101108.00;;;;4953290;28;88105;-72
2022/05/01 11:00:06;;;;;;;2.30;1.67;;;27.50;28.20;27.80;101110.00;;;;4942942;28;88240;-72
2022/05/01 11:02:41;;;;;;;2.30;1.52;;;27.30;28.60;27.60;101109.00;;;;4949728;28;89545;-73
2022/05/01 11:05:10;;;;;;;1.55;1.40;;;27.10;28.10;27.50;101107.00;;;;4952496;28;86876;-72
2022/05/01 11:07:39;;;;;;;4.15;1.98;;;26.90;29.00;27.70;101107.00;;;;4952400;28;88126;-73
2022/05/01 11:10:08;;;;;;;3.20;2.05;;;27.00;29.60;28.10;101102.00;;;;4946315;28;88222;-72
2022/05/01 11:12:35;;;;;;;3.92;2.38;;;27.20;30.00;28.50;101093.00;;;;4950680;28;90660;-76
2022/05/01 11:15:11;;;;;;;1.70;1.27;;;27.60;30.00;28.90;101110.00;;;;4948086;28;88034;-74
2022/05/01 11:17:39;;;;;;;3.42;1.15;;;28.00;30.00;29.20;101102.00;;;;4950477;28;87818;-75
2022/05/01 11:20:14;;;;;;;2.67;1.38;;;28.40;29.90;29.50;101093.00;;;;4951636;28;89068;-74